sensor_id;sensor_type;location;lat;lon;timestamp;pressure;altitude;pressure_sealevel;temperature;humidity
55068;BME280;40965;52.368;9.712;2023-01-29T00:00:04;102140.97;;;0.27;96.56
55068;BME280;40965;52.368;9.712;2023-01-29T00:02:35;102141.97;;;0.29;96.54
55068;BME280;40965;52.368;9.712;2023-01-29T00:05:03;102134.25;;;0.29;96.01
55068;BME280;40965;52.368;9.712;2023-01-29T00:07:31;102136.03;;;0.30;96.35
55068;BME280;40965;52.368;9.712;2023-01-29T00:09:57;102139.56;;;0.32;96.33
55068;BME280;40965;52.368;9.712;2023-01-29T00:12:24;102136.97;;;0.32;96.41
55068;BME280;40965;52.368;9.712;2023-01-29T00:14:50;102136.81;;;0.29;96.34
55068;BME280;40965;52.368;9.712;2023-01-29T00:17:17;102136.66;;;0.26;96.51
55068;BME280;40965;52.368;9.712;2023-01-29T00:19:43;102133.78;;;0.22;96.61
55068;BME280;40965;52.368;9.712;2023-01-29T00:22:09;102131.06;;;0.19;96.44
55068;BME280;40965;52.368;9.712;2023-01-29T00:24:36;102129.19;;;0.16;96.61
55068;BME280;40965;52.368;9.712;2023-01-29T00:27:02;102126.53;;;0.14;96.61
55068;BME280;40965;52.368;9.712;2023-01-29T00:29:30;102122.97;;;0.12;96.55
55068;BME280;40965;52.368;9.712;2023-01-29T00:31:56;102121.28;;;0.13;96.62
55068;BME280;40965;52.368;9.712;2023-01-29T00:34:23;102118.53;;;0.10;96.60
55068;BME280;40965;52.368;9.712;2023-01-29T00:36:49;102110.81;;;0.10;97.18
55068;BME280;40965;52.368;9.712;2023-01-29T00:39:16;102120.31;;;0.11;96.70
55068;BME280;40965;52.368;9.712;2023-01-29T00:41:48;102122.63;;;0.06;96.93
55068;BME280;40965;52.368;9.712;2023-01-29T00:44:32;102116.38;;;0.03;97.08
55068;BME280;40965;52.368;9.712;2023-01-29T00:47:16;102116.31;;;0.01;97.64
55068;BME280;40965;52.368;9.712;2023-01-29T00:49:59;102121.75;;;0.06;97.09
55068;BME280;40965;52.368;9.712;2023-01-29T00:52:27;102122.63;;;0.06;96.82
55068;BME280;40965;52.368;9.712;2023-01-29T00:54:55;102124.47;;;0.09;97.06
55068;BME280;40965;52.368;9.712;2023-01-29T00:57:26;102120.41;;;0.12;97.24
55068;BME280;40965;52.368;9.712;2023-01-29T00:59:57;102118.91;;;0.16;96.80
55068;BME280;40965;52.368;9.712;2023-01-29T01:02:23;102119.06;;;0.19;97.08
55068;BME280;40965;52.368;9.712;2023-01-29T01:05:11;102122.63;;;0.21;96.95
55068;BME280;40965;52.368;9.712;2023-01-29T01:07:43;102125.13;;;0.20;96.72
55068;BME280;40965;52.368;9.712;2023-01-29T01:10:16;102125.00;;;0.18;96.98
55068;BME280;40965;52.368;9.712;2023-01-29T01:12:48;102106.72;;;0.13;96.88
55068;BME280;40965;52.368;9.712;2023-01-29T01:15:30;102103.00;;;0.08;96.85
55068;BME280;40965;52.368;9.712;2023-01-29T01:18:00;102102.22;;;0.09;97.44
55068;BME280;40965;52.368;9.712;2023-01-29T01:20:30;102098.28;;;0.16;97.30
55068;BME280;40965;52.368;9.712;2023-01-29T01:22:58;102100.41;;;0.23;96.67
55068;BME280;40965;52.368;9.712;2023-01-29T01:25:25;102089.56;;;0.29;96.31
55068;BME280;40965;52.368;9.712;2023-01-29T01:27:54;102088.22;;;0.36;96.57
55068;BME280;40965;52.368;9.712;2023-01-29T01:30:23;102091.69;;;0.36;96.10
55068;BME280;40965;52.368;9.712;2023-01-29T01:32:51;102082.28;;;0.37;95.94
55068;BME280;40965;52.368;9.712;2023-01-29T01:35:18;102079.50;;;0.33;96.19
55068;BME280;40965;52.368;9.712;2023-01-29T01:37:44;102078.56;;;0.31;96.23
55068;BME280;40965;52.368;9.712;2023-01-29T01:40:18;102067.28;;;0.29;96.39
55068;BME280;40965;52.368;9.712;2023-01-29T01:42:50;102062.75;;;0.25;96.50
55068;BME280;40965;52.368;9.712;2023-01-29T01:45:21;102077.13;;;0.22;96.74
55068;BME280;40965;52.368;9.712;2023-01-29T01:47:52;102067.63;;;0.21;96.79
55068;BME280;40965;52.368;9.712;2023-01-29T01:50:36;102062.47;;;0.21;96.93
55068;BME280;40965;52.368;9.712;2023-01-29T01:53:11;102065.06;;;0.21;96.46
55068;BME280;40965;52.368;9.712;2023-01-29T01:55:46;102064.97;;;0.19;97.21
55068;BME280;40965;52.368;9.712;2023-01-29T01:58:31;102059.66;;;0.16;97.64
55068;BME280;40965;52.368;9.712;2023-01-29T02:01:00;102059.47;;;0.13;97.04
55068;BME280;40965;52.368;9.712;2023-01-29T02:03:27;102056.38;;;0.04;97.19
55068;BME280;40965;52.368;9.712;2023-01-29T02:06:13;102063.59;;;-0.06;98.15
55068;BME280;40965;52.368;9.712;2023-01-29T02:09:01;102063.16;;;-0.13;98.89
55068;BME280;40965;52.368;9.712;2023-01-29T02:11:49;102072.19;;;-0.20;98.87
55068;BME280;40965;52.368;9.712;2023-01-29T02:14:16;102071.66;;;-0.29;99.25
55068;BME280;40965;52.368;9.712;2023-01-29T02:16:42;102068.56;;;-0.39;99.72
55068;BME280;40965;52.368;9.712;2023-01-29T02:19:17;102068.28;;;-0.43;100.00
55068;BME280;40965;52.368;9.712;2023-01-29T02:22:05;102077.41;;;-0.48;100.00
55068;BME280;40965;52.368;9.712;2023-01-29T02:30:57;102092.19;;;-0.31;100.00
55068;BME280;40965;52.368;9.712;2023-01-29T02:33:38;102096.16;;;-0.21;100.00
55068;BME280;40965;52.368;9.712;2023-01-29T02:36:30;102104.25;;;-0.15;100.00
55068;BME280;40965;52.368;9.712;2023-01-29T02:39:14;102109.03;;;-0.06;100.00
55068;BME280;40965;52.368;9.712;2023-01-29T02:42:10;102106.63;;;-0.03;99.58
55068;BME280;40965;52.368;9.712;2023-01-29T02:44:46;102109.56;;;0.03;99.63
55068;BME280;40965;52.368;9.712;2023-01-29T02:47:18;102107.16;;;0.06;98.96
55068;BME280;40965;52.368;9.712;2023-01-29T02:50:05;102104.66;;;0.08;98.44
55068;BME280;40965;52.368;9.712;2023-01-29T02:55:54;102106.38;;;0.07;98.51
55068;BME280;40965;52.368;9.712;2023-01-29T02:58:40;102108.16;;;0.08;97.44
55068;BME280;40965;52.368;9.712;2023-01-29T03:01:14;102108.31;;;0.11;97.06
55068;BME280;40965;52.368;9.712;2023-01-29T03:03:47;102101.50;;;0.12;96.25
55068;BME280;40965;52.368;9.712;2023-01-29T03:06:25;102100.44;;;0.08;96.26
55068;BME280;40965;52.368;9.712;2023-01-29T03:09:00;102091.78;;;0.08;94.89
55068;BME280;40965;52.368;9.712;2023-01-29T03:11:35;102085.13;;;0.11;94.56
55068;BME280;40965;52.368;9.712;2023-01-29T03:14:14;102080.78;;;0.10;93.20
55068;BME280;40965;52.368;9.712;2023-01-29T03:16:50;102072.97;;;0.09;92.97
55068;BME280;40965;52.368;9.712;2023-01-29T03:19:20;102077.88;;;0.04;93.38
55068;BME280;40965;52.368;9.712;2023-01-29T03:21:56;102069.09;;;0.01;93.28
55068;BME280;40965;52.368;9.712;2023-01-29T03:24:40;102071.75;;;0.02;93.42
55068;BME280;40965;52.368;9.712;2023-01-29T03:27:30;102065.09;;;0.06;92.89
55068;BME280;40965;52.368;9.712;2023-01-29T03:30:17;102064.72;;;0.14;91.83
55068;BME280;40965;52.368;9.712;2023-01-29T03:33:05;102066.25;;;0.11;91.78
55068;BME280;40965;52.368;9.712;2023-01-29T03:35:37;102059.22;;;0.08;91.67
55068;BME280;40965;52.368;9.712;2023-01-29T03:38:09;102064.09;;;0.04;91.54
55068;BME280;40965;52.368;9.712;2023-01-29T03:41:04;102068.22;;;0.00;92.43
55068;BME280;40965;52.368;9.712;2023-01-29T03:52:15;102051.00;;;-0.01;91.65
55068;BME280;40965;52.368;9.712;2023-01-29T03:54:59;102052.78;;;0.00;91.59
55068;BME280;40965;52.368;9.712;2023-01-29T03:57:56;102044.94;;;-0.02;91.69
55068;BME280;40965;52.368;9.712;2023-01-29T04:00:38;102039.97;;;0.02;91.54
55068;BME280;40965;52.368;9.712;2023-01-29T04:06:22;102034.63;;;-0.02;91.64
55068;BME280;40965;52.368;9.712;2023-01-29T04:08:55;102033.06;;;0.01;91.68
55068;BME280;40965;52.368;9.712;2023-01-29T04:11:26;102027.91;;;0.01;91.43
55068;BME280;40965;52.368;9.712;2023-01-29T04:13:55;102022.84;;;0.02;91.32
55068;BME280;40965;52.368;9.712;2023-01-29T04:16:36;102020.69;;;0.10;91.02
55068;BME280;40965;52.368;9.712;2023-01-29T04:19:05;102012.88;;;0.08;91.28
55068;BME280;40965;52.368;9.712;2023-01-29T04:21:33;102009.66;;;0.12;91.09
55068;BME280;40965;52.368;9.712;2023-01-29T04:24:01;102001.88;;;0.11;91.07
55068;BME280;40965;52.368;9.712;2023-01-29T04:26:34;102000.16;;;0.11;90.80
55068;BME280;40965;52.368;9.712;2023-01-29T04:29:28;101986.66;;;0.15;90.66
55068;BME280;40965;52.368;9.712;2023-01-29T04:32:20;101977.50;;;0.21;90.34
55068;BME280;40965;52.368;9.712;2023-01-29T04:38:40;101979.34;;;0.23;89.43
55068;BME280;40965;52.368;9.712;2023-01-29T04:41:36;101958.94;;;0.26;89.48
55068;BME280;40965;52.368;9.712;2023-01-29T04:44:15;101957.22;;;0.27;89.63
55068;BME280;40965;52.368;9.712;2023-01-29T04:47:05;101966.03;;;0.30;88.89
55068;BME280;40965;52.368;9.712;2023-01-29T04:50:10;101956.66;;;0.32;89.29
55068;BME280;40965;52.368;9.712;2023-01-29T04:52:56;101956.66;;;0.32;89.25
55068;BME280;40965;52.368;9.712;2023-01-29T04:55:42;101975.69;;;0.35;89.30
55068;BME280;40965;52.368;9.712;2023-01-29T05:01:04;101958.63;;;0.37;89.33
55068;BME280;40965;52.368;9.712;2023-01-29T05:03:33;101958.78;;;0.40;89.36
55068;BME280;40965;52.368;9.712;2023-01-29T05:06:03;101960.56;;;0.41;88.99
55068;BME280;40965;52.368;9.712;2023-01-29T05:08:35;101952.91;;;0.42;88.70
55068;BME280;40965;52.368;9.712;2023-01-29T05:11:11;101954.69;;;0.43;88.70
55068;BME280;40965;52.368;9.712;2023-01-29T05:13:40;101967.50;;;0.42;88.94
55068;BME280;40965;52.368;9.712;2023-01-29T05:16:15;101960.31;;;0.36;88.91
55068;BME280;40965;52.368;9.712;2023-01-29T05:19:13;101956.78;;;0.34;89.44
55068;BME280;40965;52.368;9.712;2023-01-29T05:21:56;101957.66;;;0.35;89.10
55068;BME280;40965;52.368;9.712;2023-01-29T05:24:37;101950.78;;;0.35;89.33
55068;BME280;40965;52.368;9.712;2023-01-29T05:27:14;101956.78;;;0.34;89.22
55068;BME280;40965;52.368;9.712;2023-01-29T05:30:02;101957.50;;;0.31;89.61
55068;BME280;40965;52.368;9.712;2023-01-29T05:32:29;101955.78;;;0.32;89.15
55068;BME280;40965;52.368;9.712;2023-01-29T05:34:59;101961.09;;;0.35;88.93
55068;BME280;40965;52.368;9.712;2023-01-29T05:37:31;101971.41;;;0.35;89.11
55068;BME280;40965;52.368;9.712;2023-01-29T05:40:01;101971.50;;;0.37;88.94
55068;BME280;40965;52.368;9.712;2023-01-29T05:42:30;101969.16;;;0.41;88.26
55068;BME280;40965;52.368;9.712;2023-01-29T05:45:00;101971.81;;;0.43;87.57
55068;BME280;40965;52.368;9.712;2023-01-29T05:47:26;101976.75;;;0.38;87.78
55068;BME280;40965;52.368;9.712;2023-01-29T05:49:53;101969.88;;;0.39;87.59
55068;BME280;40965;52.368;9.712;2023-01-29T05:52:19;101969.09;;;0.40;87.41
55068;BME280;40965;52.368;9.712;2023-01-29T05:54:46;101972.38;;;0.37;87.45
55068;BME280;40965;52.368;9.712;2023-01-29T05:57:13;101975.69;;;0.35;87.91
55068;BME280;40965;52.368;9.712;2023-01-29T05:59:40;101985.00;;;0.32;88.11
55068;BME280;40965;52.368;9.712;2023-01-29T06:02:06;101986.97;;;0.37;87.61
55068;BME280;40965;52.368;9.712;2023-01-29T06:04:39;101986.84;;;0.35;87.78
55068;BME280;40965;52.368;9.712;2023-01-29T06:07:17;101993.16;;;0.40;88.01
55068;BME280;40965;52.368;9.712;2023-01-29T06:09:46;101984.47;;;0.38;87.58
55068;BME280;40965;52.368;9.712;2023-01-29T06:12:12;101981.09;;;0.39;87.64
55068;BME280;40965;52.368;9.712;2023-01-29T06:14:50;101987.91;;;0.39;88.29
55068;BME280;40965;52.368;9.712;2023-01-29T06:17:19;101992.19;;;0.38;88.82
55068;BME280;40965;52.368;9.712;2023-01-29T06:19:46;101987.19;;;0.41;88.34
55068;BME280;40965;52.368;9.712;2023-01-29T06:22:18;101970.06;;;0.42;88.57
55068;BME280;40965;52.368;9.712;2023-01-29T06:24:47;101964.00;;;0.41;89.03
55068;BME280;40965;52.368;9.712;2023-01-29T06:27:14;101979.53;;;0.43;89.14
55068;BME280;40965;52.368;9.712;2023-01-29T06:29:40;101988.19;;;0.43;88.93
55068;BME280;40965;52.368;9.712;2023-01-29T06:32:07;101982.31;;;0.46;88.93
55068;BME280;40965;52.368;9.712;2023-01-29T06:34:33;101988.41;;;0.48;88.96
55068;BME280;40965;52.368;9.712;2023-01-29T06:37:00;101982.63;;;0.52;89.30
55068;BME280;40965;52.368;9.712;2023-01-29T06:39:27;101982.47;;;0.49;89.53
55068;BME280;40965;52.368;9.712;2023-01-29T06:41:53;101986.03;;;0.51;90.02
55068;BME280;40965;52.368;9.712;2023-01-29T06:44:20;101987.03;;;0.55;89.76
55068;BME280;40965;52.368;9.712;2023-01-29T06:46:46;101979.97;;;0.51;89.50
55068;BME280;40965;52.368;9.712;2023-01-29T06:49:12;101984.88;;;0.46;89.67
55068;BME280;40965;52.368;9.712;2023-01-29T06:51:39;101984.81;;;0.44;89.56
55068;BME280;40965;52.368;9.712;2023-01-29T06:54:05;101977.81;;;0.42;89.48
55068;BME280;40965;52.368;9.712;2023-01-29T06:56:33;101981.81;;;0.37;89.24
55068;BME280;40965;52.368;9.712;2023-01-29T06:58:59;101989.53;;;0.37;88.86
55068;BME280;40965;52.368;9.712;2023-01-29T07:01:25;102002.31;;;0.35;88.95
55068;BME280;40965;52.368;9.712;2023-01-29T07:03:52;102020.97;;;0.31;89.60
55068;BME280;40965;52.368;9.712;2023-01-29T07:06:19;102019.13;;;0.28;89.85
55068;BME280;40965;52.368;9.712;2023-01-29T07:08:46;102013.03;;;0.26;90.25
55068;BME280;40965;52.368;9.712;2023-01-29T07:11:12;102023.31;;;0.26;90.64
55068;BME280;40965;52.368;9.712;2023-01-29T07:13:39;102017.28;;;0.26;90.38
55068;BME280;40965;52.368;9.712;2023-01-29T07:16:06;102026.84;;;0.28;90.67
55068;BME280;40965;52.368;9.712;2023-01-29T07:18:32;102017.47;;;0.29;91.05
55068;BME280;40965;52.368;9.712;2023-01-29T07:21:03;102007.22;;;0.30;90.93
55068;BME280;40965;52.368;9.712;2023-01-29T07:23:31;102004.81;;;0.33;91.65
55068;BME280;40965;52.368;9.712;2023-01-29T07:26:03;102007.38;;;0.33;91.71
55068;BME280;40965;52.368;9.712;2023-01-29T07:28:30;101997.81;;;0.31;92.56
55068;BME280;40965;52.368;9.712;2023-01-29T07:30:57;101999.44;;;0.29;93.61
55068;BME280;40965;52.368;9.712;2023-01-29T07:33:24;101973.75;;;0.30;94.28
55068;BME280;40965;52.368;9.712;2023-01-29T07:35:51;101975.25;;;0.27;94.89
55068;BME280;40965;52.368;9.712;2023-01-29T07:38:18;101975.25;;;0.27;95.61
55068;BME280;40965;52.368;9.712;2023-01-29T07:40:45;101977.75;;;0.25;95.80
55068;BME280;40965;52.368;9.712;2023-01-29T07:43:12;101984.50;;;0.23;96.11
55068;BME280;40965;52.368;9.712;2023-01-29T07:45:39;101979.34;;;0.23;96.58
55068;BME280;40965;52.368;9.712;2023-01-29T07:48:06;101975.19;;;0.25;97.25
55068;BME280;40965;52.368;9.712;2023-01-29T07:50:35;101974.38;;;0.26;97.76
55068;BME280;40965;52.368;9.712;2023-01-29T07:53:02;101976.13;;;0.27;99.21
55068;BME280;40965;52.368;9.712;2023-01-29T07:55:29;101957.88;;;0.23;99.43
55068;BME280;40965;52.368;9.712;2023-01-29T07:58:02;101933.56;;;0.18;100.00
55068;BME280;40965;52.368;9.712;2023-01-29T08:00:30;101925.84;;;0.18;100.00
55068;BME280;40965;52.368;9.712;2023-01-29T08:03:04;101926.56;;;0.15;100.00
55068;BME280;40965;52.368;9.712;2023-01-29T08:05:32;101934.19;;;0.13;100.00
55068;BME280;40965;52.368;9.712;2023-01-29T08:07:58;101944.50;;;0.13;100.00
55068;BME280;40965;52.368;9.712;2023-01-29T08:10:25;101951.31;;;0.13;100.00
55068;BME280;40965;52.368;9.712;2023-01-29T08:12:57;101947.06;;;0.13;100.00
55068;BME280;40965;52.368;9.712;2023-01-29T08:15:25;101950.72;;;0.17;100.00
55068;BME280;40965;52.368;9.712;2023-01-29T08:17:53;101942.28;;;0.20;100.00
55068;BME280;40965;52.368;9.712;2023-01-29T08:20:20;101944.50;;;0.13;100.00
55068;BME280;40965;52.368;9.712;2023-01-29T08:22:47;101947.88;;;0.12;100.00
55068;BME280;40965;52.368;9.712;2023-01-29T08:25:14;101941.28;;;0.18;100.00
55068;BME280;40965;52.368;9.712;2023-01-29T08:27:41;101949.16;;;0.21;100.00
55068;BME280;40965;52.368;9.712;2023-01-29T08:30:08;101945.72;;;0.20;100.00
55068;BME280;40965;52.368;9.712;2023-01-29T08:32:35;101950.88;;;0.20;100.00
55068;BME280;40965;52.368;9.712;2023-01-29T08:35:02;101949.00;;;0.18;100.00
55068;BME280;40965;52.368;9.712;2023-01-29T08:37:28;101947.50;;;0.21;100.00
55068;BME280;40965;52.368;9.712;2023-01-29T08:39:55;101942.56;;;0.26;100.00
55068;BME280;40965;52.368;9.712;2023-01-29T08:42:21;101953.16;;;0.30;100.00
55068;BME280;40965;52.368;9.712;2023-01-29T08:44:47;101937.84;;;0.33;100.00
55068;BME280;40965;52.368;9.712;2023-01-29T08:47:14;101943.91;;;0.34;100.00
55068;BME280;40965;52.368;9.712;2023-01-29T08:49:40;101930.75;;;0.29;100.00
55068;BME280;40965;52.368;9.712;2023-01-29T08:52:07;101937.91;;;0.35;100.00
55068;BME280;40965;52.368;9.712;2023-01-29T08:54:33;101933.03;;;0.40;100.00
55068;BME280;40965;52.368;9.712;2023-01-29T08:57:00;101925.28;;;0.40;100.00
55068;BME280;40965;52.368;9.712;2023-01-29T08:59:26;101931.50;;;0.43;100.00
55068;BME280;40965;52.368;9.712;2023-01-29T09:01:53;101929.16;;;0.48;100.00
55068;BME280;40965;52.368;9.712;2023-01-29T09:04:19;101931.97;;;0.53;100.00
55068;BME280;40965;52.368;9.712;2023-01-29T09:06:45;101923.75;;;0.60;99.67
55068;BME280;40965;52.368;9.712;2023-01-29T09:09:12;101930.94;;;0.65;99.92
55068;BME280;40965;52.368;9.712;2023-01-29T09:11:39;101937.28;;;0.72;98.75
55068;BME280;40965;52.368;9.712;2023-01-29T09:14:05;101928.75;;;0.73;98.65
55068;BME280;40965;52.368;9.712;2023-01-29T09:16:32;101912.31;;;0.71;98.69
55068;BME280;40965;52.368;9.712;2023-01-29T09:18:58;101918.66;;;0.78;98.17
55068;BME280;40965;52.368;9.712;2023-01-29T09:21:25;101902.16;;;0.74;98.33
55068;BME280;40965;52.368;9.712;2023-01-29T09:23:51;101904.97;;;0.79;97.96
55068;BME280;40965;52.368;9.712;2023-01-29T09:26:18;101892.03;;;0.77;98.29
55068;BME280;40965;52.368;9.712;2023-01-29T09:28:44;101885.47;;;0.84;97.56
55068;BME280;40965;52.368;9.712;2023-01-29T09:31:11;101888.06;;;0.84;97.48
55068;BME280;40965;52.368;9.712;2023-01-29T09:33:37;101888.19;;;0.87;97.71
55068;BME280;40965;52.368;9.712;2023-01-29T09:36:04;101887.13;;;1.00;96.72
55068;BME280;40965;52.368;9.712;2023-01-29T09:38:31;101899.94;;;0.98;96.55
55068;BME280;40965;52.368;9.712;2023-01-29T09:43:38;101880.31;;;1.01;96.53
55068;BME280;40965;52.368;9.712;2023-01-29T09:46:16;101884.72;;;1.03;96.34
55068;BME280;40965;52.368;9.712;2023-01-29T09:49:00;101888.63;;;1.13;95.70
55068;BME280;40965;52.368;9.712;2023-01-29T09:51:40;101877.66;;;1.17;95.05
55068;BME280;40965;52.368;9.712;2023-01-29T09:54:23;101874.19;;;1.17;94.87
55068;BME280;40965;52.368;9.712;2023-01-29T09:56:55;101892.38;;;1.20;95.19
55068;BME280;40965;52.368;9.712;2023-01-29T09:59:24;101877.81;;;1.20;94.25
55068;BME280;40965;52.368;9.712;2023-01-29T10:02:09;101868.50;;;1.24;94.40
55068;BME280;40965;52.368;9.712;2023-01-29T10:04:57;101868.31;;;1.19;94.34
55068;BME280;40965;52.368;9.712;2023-01-29T10:10:50;101862.91;;;1.14;94.85
55068;BME280;40965;52.368;9.712;2023-01-29T10:14:02;101860.50;;;1.18;94.42
55068;BME280;40965;52.368;9.712;2023-01-29T10:16:42;101858.28;;;1.25;94.51
55068;BME280;40965;52.368;9.712;2023-01-29T10:23:21;101865.81;;;1.39;94.14
55068;BME280;40965;52.368;9.712;2023-01-29T10:25:52;101866.09;;;1.45;93.61
55068;BME280;40965;52.368;9.712;2023-01-29T10:28:24;101865.88;;;1.40;93.61
55068;BME280;40965;52.368;9.712;2023-01-29T10:31:17;101866.47;;;1.35;94.13
55068;BME280;40965;52.368;9.712;2023-01-29T10:34:10;101868.47;;;1.40;94.24
55068;BME280;40965;52.368;9.712;2023-01-29T10:36:45;101877.44;;;1.48;94.08
55068;BME280;40965;52.368;9.712;2023-01-29T10:39:18;101861.53;;;1.57;93.22
55068;BME280;40965;52.368;9.712;2023-01-29T10:42:07;101865.88;;;1.58;92.60
55068;BME280;40965;52.368;9.712;2023-01-29T10:45:07;101856.28;;;1.56;92.80
55068;BME280;40965;52.368;9.712;2023-01-29T10:47:48;101852.00;;;1.56;93.03
55068;BME280;40965;52.368;9.712;2023-01-29T10:50:38;101847.88;;;1.60;92.04
55068;BME280;40965;52.368;9.712;2023-01-29T10:53:26;101840.00;;;1.57;92.39
55068;BME280;40965;52.368;9.712;2023-01-29T10:56:32;101837.56;;;1.60;91.19
55068;BME280;40965;52.368;9.712;2023-01-29T10:59:41;101832.25;;;1.57;91.77
55068;BME280;40965;52.368;9.712;2023-01-29T11:02:17;101816.97;;;1.61;90.79
55068;BME280;40965;52.368;9.712;2023-01-29T11:04:46;101813.28;;;1.56;90.95
55068;BME280;40965;52.368;9.712;2023-01-29T11:07:15;101817.72;;;1.59;91.28
55068;BME280;40965;52.368;9.712;2023-01-29T11:09:56;101803.31;;;1.64;90.53
55068;BME280;40965;52.368;9.712;2023-01-29T11:12:29;101795.81;;;1.69;90.45
55068;BME280;40965;52.368;9.712;2023-01-29T11:15:23;101799.41;;;1.72;89.97
55068;BME280;40965;52.368;9.712;2023-01-29T11:18:03;101797.78;;;1.74;89.26
55068;BME280;40965;52.368;9.712;2023-01-29T11:20:33;101796.84;;;1.72;89.41
55068;BME280;40965;52.368;9.712;2023-01-29T11:22:59;101791.50;;;1.69;89.50
55068;BME280;40965;52.368;9.712;2023-01-29T11:25:26;101784.56;;;1.68;89.72
55068;BME280;40965;52.368;9.712;2023-01-29T11:27:59;101790.75;;;1.72;89.32
55068;BME280;40965;52.368;9.712;2023-01-29T11:30:29;101772.84;;;1.75;89.12
55068;BME280;40965;52.368;9.712;2023-01-29T11:33:17;101769.44;;;1.76;89.00
55068;BME280;40965;52.368;9.712;2023-01-29T11:35:45;101771.94;;;1.74;88.50
55068;BME280;40965;52.368;9.712;2023-01-29T11:40:43;101765.25;;;1.78;89.30
55068;BME280;40965;52.368;9.712;2023-01-29T11:43:42;101756.94;;;1.85;88.91
55068;BME280;40965;52.368;9.712;2023-01-29T11:46:13;101758.47;;;1.80;88.48
55068;BME280;40965;52.368;9.712;2023-01-29T11:51:11;101757.63;;;1.81;88.32
55068;BME280;40965;52.368;9.712;2023-01-29T11:54:05;101750.78;;;1.81;87.49
55068;BME280;40965;52.368;9.712;2023-01-29T11:56:34;101737.94;;;1.83;88.14
55068;BME280;40965;52.368;9.712;2023-01-29T11:59:05;101729.38;;;1.84;87.76
55068;BME280;40965;52.368;9.712;2023-01-29T12:02:27;101719.72;;;1.80;87.95
55068;BME280;40965;52.368;9.712;2023-01-29T12:05:04;101724.00;;;1.79;87.81
55068;BME280;40965;52.368;9.712;2023-01-29T12:07:33;101719.78;;;1.81;87.49
55068;BME280;40965;52.368;9.712;2023-01-29T12:10:00;101718.34;;;1.88;87.36
55068;BME280;40965;52.368;9.712;2023-01-29T12:12:40;101714.13;;;1.90;86.60
55068;BME280;40965;52.368;9.712;2023-01-29T12:17:35;101716.53;;;1.86;86.53
55068;BME280;40965;52.368;9.712;2023-01-29T12:20:17;101708.72;;;1.84;87.13
55068;BME280;40965;52.368;9.712;2023-01-29T12:23:05;101708.78;;;1.86;86.68
55068;BME280;40965;52.368;9.712;2023-01-29T12:25:50;101698.22;;;1.81;87.14
55068;BME280;40965;52.368;9.712;2023-01-29T12:31:39;101682.69;;;1.79;87.14
55068;BME280;40965;52.368;9.712;2023-01-29T12:34:26;101695.59;;;1.79;87.21
55068;BME280;40965;52.368;9.712;2023-01-29T12:37:14;101692.16;;;1.79;86.88
55068;BME280;40965;52.368;9.712;2023-01-29T12:39:43;101687.03;;;1.80;86.63
55068;BME280;40965;52.368;9.712;2023-01-29T12:42:16;101689.41;;;1.76;87.52
55068;BME280;40965;52.368;9.712;2023-01-29T12:44:53;101695.47;;;1.76;87.62
55068;BME280;40965;52.368;9.712;2023-01-29T12:47:40;101684.53;;;1.82;87.58
55068;BME280;40965;52.368;9.712;2023-01-29T12:50:19;101688.88;;;1.83;87.13
55068;BME280;40965;52.368;9.712;2023-01-29T12:52:51;101686.97;;;1.79;86.89
55068;BME280;40965;52.368;9.712;2023-01-29T12:55:25;101678.28;;;1.77;87.15
55068;BME280;40965;52.368;9.712;2023-01-29T12:57:55;101672.84;;;1.71;87.77
55068;BME280;40965;52.368;9.712;2023-01-29T13:00:34;101675.63;;;1.75;87.38
55068;BME280;40965;52.368;9.712;2023-01-29T13:03:13;101676.16;;;1.68;87.52
55068;BME280;40965;52.368;9.712;2023-01-29T13:05:58;101668.34;;;1.67;87.78
55068;BME280;40965;52.368;9.712;2023-01-29T13:08:28;101668.16;;;1.62;87.90
55068;BME280;40965;52.368;9.712;2023-01-29T13:10:59;101649.09;;;1.58;88.29
55068;BME280;40965;52.368;9.712;2023-01-29T13:13:42;101650.84;;;1.59;88.04
55068;BME280;40965;52.368;9.712;2023-01-29T13:16:18;101655.22;;;1.60;88.60
55068;BME280;40965;52.368;9.712;2023-01-29T13:18:59;101648.50;;;1.65;88.37
55068;BME280;40965;52.368;9.712;2023-01-29T13:21:38;101633.19;;;1.69;88.20
55068;BME280;40965;52.368;9.712;2023-01-29T13:24:12;101636.63;;;1.69;88.14
55068;BME280;40965;52.368;9.712;2023-01-29T13:26:45;101624.53;;;1.68;87.84
55068;BME280;40965;52.368;9.712;2023-01-29T13:29:27;101619.53;;;1.71;87.92
55068;BME280;40965;52.368;9.712;2023-01-29T13:31:56;101618.03;;;1.76;88.29
55068;BME280;40965;52.368;9.712;2023-01-29T13:34:26;101615.72;;;1.83;87.59
55068;BME280;40965;52.368;9.712;2023-01-29T13:37:18;101616.75;;;1.88;87.82
55068;BME280;40965;52.368;9.712;2023-01-29T13:39:53;101617.50;;;1.85;88.07
55068;BME280;40965;52.368;9.712;2023-01-29T13:42:42;101618.13;;;1.79;88.00
55068;BME280;40965;52.368;9.712;2023-01-29T13:45:20;101614.44;;;1.73;88.83
55068;BME280;40965;52.368;9.712;2023-01-29T13:47:50;101605.59;;;1.68;88.66
55068;BME280;40965;52.368;9.712;2023-01-29T13:50:37;101593.38;;;1.63;89.18
55068;BME280;40965;52.368;9.712;2023-01-29T13:53:06;101596.09;;;1.67;90.08
55068;BME280;40965;52.368;9.712;2023-01-29T13:55:37;101581.34;;;1.64;90.50
55068;BME280;40965;52.368;9.712;2023-01-29T13:58:06;101587.25;;;1.61;90.17
55068;BME280;40965;52.368;9.712;2023-01-29T14:05:39;101571.94;;;1.64;90.63
55068;BME280;40965;52.368;9.712;2023-01-29T14:10:40;101565.88;;;1.64;91.06
55068;BME280;40965;52.368;9.712;2023-01-29T14:15:45;101568.59;;;1.67;91.35
55068;BME280;40965;52.368;9.712;2023-01-29T14:18:32;101568.72;;;1.70;91.28
55068;BME280;40965;52.368;9.712;2023-01-29T14:21:20;101557.69;;;1.74;91.55
55068;BME280;40965;52.368;9.712;2023-01-29T14:23:53;101562.78;;;1.73;92.14
55068;BME280;40965;52.368;9.712;2023-01-29T14:26:33;101562.00;;;1.74;92.74
55068;BME280;40965;52.368;9.712;2023-01-29T14:31:56;101556.50;;;1.66;94.26
55068;BME280;40965;52.368;9.712;2023-01-29T14:34:31;101544.41;;;1.65;94.74